Delta Virtual Airport Information Service

Hangzhou Xiaoshan International Airport

ICAO: ZSHC Country: China
Latitude: 30.2295 Longitude: 120.434
Latest Arrival : CAL5166941 (RCTP-ZSHC) Latest Departure : DALJUMP (ZSHC-KLAX)


WX CaptureLIVE
Data provided by noaa.gov | Fetched at 19:15:10

METAR : ZSHC 172300Z 21002MPS CAVOK 30/26 Q1006 NOSIG

TAF : ZSHC 172300Z 21002MPS CAVOK 30/26 Q1006 NOSIG


Runway Data for ZSHC
Data provided by openaviationdata.com

Runway ID Mag Var Hdg Length Elevation Surface ILS Freq ILS Id ILS Slope
7 -4 66° 11808 ft 23 ft Concrete 109.9 IXX 3
25 -4 246° 11808 ft 23 ft Concrete 108.5 IDD 3

Hangzhou Xiaoshan International Airport, China
Use only for reference purposes



Not for navigational purposes.